createdAt,value
2024-02-02T00:02:08.470Z,3.30
2024-02-02T00:04:38.208Z,3.17
2024-02-02T00:07:06.644Z,2.73
2024-02-02T00:09:34.744Z,2.10
2024-02-02T00:12:04.689Z,2.63
2024-02-02T00:14:32.848Z,2.10
2024-02-02T00:17:01.027Z,2.37
2024-02-02T00:19:29.612Z,2.17
2024-02-02T00:21:59.537Z,3.03
2024-02-02T00:24:27.655Z,4.13
2024-02-02T00:26:55.876Z,2.60
2024-02-02T00:29:23.994Z,1.83
2024-02-02T00:31:52.241Z,2.53
2024-02-02T00:34:20.398Z,2.10
2024-02-02T00:36:48.695Z,3.20
2024-02-02T00:39:18.238Z,2.60
2024-02-02T00:41:49.595Z,2.13
2024-02-02T00:44:17.673Z,3.73
2024-02-02T00:46:46.205Z,1.90
2024-02-02T00:49:14.609Z,1.80
2024-02-02T00:51:43.414Z,2.47
2024-02-02T00:54:11.460Z,1.80
2024-02-02T00:56:41.131Z,3.20
2024-02-02T00:59:09.447Z,1.87
2024-02-02T01:01:37.699Z,2.40
2024-02-02T01:04:06.129Z,2.30
2024-02-02T01:06:34.531Z,2.40
2024-02-02T01:09:02.998Z,1.60
2024-02-02T01:11:31.785Z,2.03
2024-02-02T01:14:01.203Z,2.20
2024-02-02T01:16:31.398Z,2.10
2024-02-02T01:19:01.016Z,2.77
2024-02-02T01:21:29.460Z,2.03
2024-02-02T01:23:58.138Z,2.20
2024-02-02T01:26:26.421Z,4.70
2024-02-02T01:28:54.671Z,2.17
2024-02-02T01:31:24.191Z,1.70
2024-02-02T01:33:52.420Z,2.13
2024-02-02T01:36:20.575Z,5.70
2024-02-02T01:38:51.525Z,4.43
2024-02-02T01:41:20.269Z,2.23
2024-02-02T01:43:48.439Z,2.20
2024-02-02T01:46:16.681Z,1.93
2024-02-02T01:48:46.213Z,2.00
2024-02-02T01:51:14.479Z,3.03
2024-02-02T01:53:43.982Z,1.83
2024-02-02T01:56:12.356Z,1.60
2024-02-02T01:58:40.710Z,2.00
2024-02-02T02:01:08.930Z,2.07
2024-02-02T02:03:37.127Z,2.23
2024-02-02T02:06:07.002Z,2.47
2024-02-02T02:08:35.750Z,3.10
2024-02-02T02:11:04.660Z,2.47
2024-02-02T02:13:33.034Z,4.10
2024-02-02T02:16:01.135Z,2.50
2024-02-02T02:18:29.482Z,2.70
2024-02-02T02:20:57.595Z,2.40
2024-02-02T02:23:27.924Z,2.30
2024-02-02T02:25:56.216Z,1.70
2024-02-02T02:28:24.262Z,2.50
2024-02-02T02:30:52.284Z,2.00
2024-02-02T02:33:20.949Z,1.90
2024-02-02T02:35:49.123Z,2.47
2024-02-02T02:38:17.322Z,2.13
2024-02-02T02:40:46.836Z,2.53
2024-02-02T02:43:14.943Z,2.63
2024-02-02T02:45:42.988Z,2.77
2024-02-02T02:48:11.118Z,2.00
2024-02-02T02:50:39.282Z,2.83
2024-02-02T02:53:07.443Z,1.87
2024-02-02T02:55:35.459Z,2.20
2024-02-02T02:58:05.006Z,2.47
2024-02-02T03:00:33.241Z,1.73
2024-02-02T03:03:01.454Z,3.50
2024-02-02T03:05:31.578Z,2.13
2024-02-02T03:07:59.726Z,2.20
2024-02-02T03:10:27.704Z,2.37
2024-02-02T03:12:55.756Z,2.10
2024-02-02T03:15:25.293Z,2.00
2024-02-02T03:17:53.402Z,2.20
2024-02-02T03:20:21.430Z,2.47
2024-02-02T03:22:51.385Z,2.13
2024-02-02T03:25:19.436Z,1.70
2024-02-02T03:27:47.400Z,2.00
2024-02-02T03:30:16.039Z,2.10
2024-02-02T03:32:46.563Z,1.80
2024-02-02T03:35:15.092Z,2.37
2024-02-02T03:37:43.225Z,1.73
2024-02-02T03:40:12.330Z,2.23
2024-02-02T03:42:40.368Z,2.23
2024-02-02T03:45:09.232Z,1.70
2024-02-02T03:47:37.418Z,2.50
2024-02-02T03:50:07.574Z,2.03
2024-02-02T03:52:35.616Z,2.03
2024-02-02T03:55:03.702Z,2.00
2024-02-02T03:57:32.029Z,3.67
2024-02-02T04:00:00.179Z,4.77
2024-02-02T04:02:28.208Z,2.27
2024-02-02T04:04:56.358Z,2.00
2024-02-02T04:07:25.733Z,1.97
2024-02-02T04:09:53.723Z,2.40
2024-02-02T04:12:21.764Z,1.93
2024-02-02T04:14:49.826Z,2.40
2024-02-02T04:17:17.849Z,2.10
2024-02-02T04:19:45.902Z,2.50
2024-02-02T04:22:17.857Z,1.57
2024-02-02T04:24:47.592Z,3.43
2024-02-02T04:27:15.623Z,2.10
2024-02-02T04:29:43.644Z,2.43
2024-02-02T04:32:11.760Z,2.07
2024-02-02T04:34:40.160Z,2.07
2024-02-02T04:37:08.297Z,2.47
2024-02-02T04:39:36.340Z,2.10
2024-02-02T04:42:07.069Z,1.97
2024-02-02T04:44:36.812Z,1.60
2024-02-02T04:47:05.532Z,2.37
2024-02-02T04:49:33.723Z,3.37
2024-02-02T04:52:01.865Z,2.00
2024-02-02T04:54:29.942Z,2.40
2024-02-02T04:56:58.082Z,3.20
2024-02-02T04:59:27.625Z,3.50
2024-02-02T05:01:55.679Z,3.40
2024-02-02T05:04:23.770Z,2.37
2024-02-02T05:06:51.777Z,1.90
2024-02-02T05:09:19.837Z,2.20
2024-02-02T05:11:47.847Z,2.27
2024-02-02T05:14:15.856Z,2.00
2024-02-02T05:16:45.225Z,2.67
2024-02-02T05:19:13.393Z,1.97
2024-02-02T05:21:41.472Z,1.83
2024-02-02T05:24:21.982Z,2.10
2024-02-02T05:26:57.791Z,1.93
2024-02-02T05:29:26.017Z,1.70
2024-02-02T05:31:55.624Z,2.27
2024-02-02T05:34:23.808Z,2.07
2024-02-02T05:36:51.901Z,1.97
2024-02-02T05:39:19.952Z,2.17
2024-02-02T05:41:47.938Z,1.67
2024-02-02T05:44:15.912Z,2.23
2024-02-02T05:46:43.918Z,2.30
2024-02-02T05:49:13.386Z,2.70
2024-02-02T05:51:41.486Z,1.80
2024-02-02T05:54:10.007Z,2.43
2024-02-02T05:56:37.969Z,2.13
2024-02-02T05:59:05.968Z,1.87
2024-02-02T06:01:34.105Z,3.07
2024-02-02T06:04:02.445Z,2.90
2024-02-02T06:06:31.903Z,1.93
2024-02-02T06:09:00.908Z,1.93
2024-02-02T06:11:29.291Z,1.70
2024-02-02T06:13:58.558Z,1.60
2024-02-02T06:16:27.086Z,2.13
2024-02-02T06:18:55.483Z,2.03
2024-02-02T06:21:23.658Z,1.67
2024-02-02T06:23:53.047Z,2.30
2024-02-02T06:26:21.846Z,3.03
2024-02-02T06:28:49.926Z,2.23
2024-02-02T06:31:17.940Z,2.60
2024-02-02T06:33:46.074Z,2.30
2024-02-02T06:36:14.190Z,3.00
2024-02-02T06:38:42.184Z,1.97
2024-02-02T06:41:12.273Z,2.70
2024-02-02T06:43:41.313Z,2.20
2024-02-02T06:46:09.335Z,2.50
2024-02-02T06:48:37.580Z,3.40
2024-02-02T06:51:06.088Z,3.63
2024-02-02T06:53:34.616Z,2.77
2024-02-02T06:56:02.746Z,2.40
2024-02-02T06:58:43.938Z,2.13
2024-02-02T07:01:12.827Z,1.70
2024-02-02T07:03:41.248Z,4.40
2024-02-02T07:06:10.681Z,1.90
2024-02-02T07:08:38.727Z,2.10
2024-02-02T07:11:31.005Z,2.57
2024-02-02T07:14:02.267Z,4.03
2024-02-02T07:16:32.257Z,2.50
2024-02-02T07:19:00.496Z,2.20
2024-02-02T07:21:32.084Z,2.60
2024-02-02T07:24:01.325Z,3.40
2024-02-02T07:26:32.111Z,2.07
2024-02-02T07:29:06.816Z,1.93
2024-02-02T07:31:40.305Z,2.80
2024-02-02T07:34:39.448Z,5.10
2024-02-02T07:37:11.427Z,4.70
2024-02-02T07:39:39.670Z,3.80
2024-02-02T07:42:08.006Z,6.10
2024-02-02T07:44:37.447Z,3.90
2024-02-02T07:47:05.708Z,5.17
2024-02-02T07:49:33.830Z,4.23
2024-02-02T07:52:02.074Z,3.87
2024-02-02T07:54:30.503Z,3.47
2024-02-02T07:56:58.667Z,4.70
2024-02-02T07:59:26.773Z,5.43
2024-02-02T08:01:56.224Z,4.00
2024-02-02T08:04:24.517Z,3.77
2024-02-02T08:06:52.626Z,4.13
2024-02-02T08:09:20.698Z,4.03
2024-02-02T08:11:48.761Z,5.10
2024-02-02T08:14:16.790Z,4.37
2024-02-02T08:16:44.811Z,4.70
2024-02-02T08:19:14.218Z,4.47
2024-02-02T08:21:42.523Z,3.93
2024-02-02T08:24:10.479Z,4.30
2024-02-02T08:26:38.494Z,4.00
2024-02-02T08:29:06.531Z,4.20
2024-02-02T08:31:35.289Z,4.60
2024-02-02T08:34:03.493Z,5.07
2024-02-02T08:36:32.942Z,3.47
2024-02-02T08:39:01.086Z,6.20
2024-02-02T08:41:29.139Z,5.50
2024-02-02T08:43:58.330Z,4.17
2024-02-02T08:46:26.834Z,3.97
2024-02-02T08:48:56.628Z,3.87
2024-02-02T08:51:56.238Z,3.87
2024-02-02T08:54:48.610Z,4.03
2024-02-02T08:57:33.052Z,4.07
2024-02-02T09:00:09.065Z,3.80
2024-02-02T09:02:55.563Z,4.20
2024-02-02T09:05:25.202Z,5.27
2024-02-02T09:08:08.379Z,4.10
2024-02-02T09:11:18.579Z,4.10
2024-02-02T09:13:46.799Z,3.70
2024-02-02T09:16:16.872Z,4.20
2024-02-02T09:18:46.989Z,4.37
2024-02-02T09:21:19.384Z,5.27
2024-02-02T09:23:51.479Z,4.37
2024-02-02T09:26:31.361Z,4.87
2024-02-02T09:29:02.228Z,5.43
2024-02-02T09:31:36.457Z,5.10
2024-02-02T09:34:09.653Z,6.53
2024-02-02T09:36:40.685Z,4.33
2024-02-02T09:39:50.984Z,3.77
2024-02-02T09:42:47.719Z,3.97
2024-02-02T09:45:26.970Z,3.83
2024-02-02T09:48:10.661Z,4.37
2024-02-02T09:50:49.501Z,5.33
2024-02-02T09:53:44.612Z,4.10
2024-02-02T09:56:24.357Z,5.50
2024-02-02T09:59:01.202Z,3.80
2024-02-02T10:01:48.549Z,4.30
2024-02-02T10:04:36.369Z,3.17
2024-02-02T10:07:19.402Z,4.00
2024-02-02T10:10:03.950Z,3.00
2024-02-02T10:12:42.380Z,3.17
2024-02-02T10:15:36.750Z,4.53
2024-02-02T10:18:35.698Z,3.47
2024-02-02T10:21:09.866Z,3.60
2024-02-02T10:24:11.931Z,4.10
2024-02-02T10:26:59.628Z,3.70
2024-02-02T10:29:39.937Z,5.30
2024-02-02T10:32:27.369Z,3.67
2024-02-02T10:35:06.742Z,3.53
2024-02-02T10:37:37.195Z,3.73
2024-02-02T10:40:21.764Z,4.80
2024-02-02T10:43:09.053Z,4.20
2024-02-02T10:45:44.275Z,4.70
2024-02-02T10:48:26.598Z,3.23
2024-02-02T10:51:06.247Z,5.30
2024-02-02T10:53:41.872Z,3.73
2024-02-02T10:56:26.854Z,3.70
2024-02-02T10:59:07.500Z,4.10
2024-02-02T11:01:47.429Z,3.90
2024-02-02T11:04:28.413Z,3.30
2024-02-02T11:07:05.494Z,3.77
2024-02-02T11:09:39.071Z,3.60
2024-02-02T11:12:12.953Z,4.40
2024-02-02T11:14:48.998Z,3.47
2024-02-02T11:17:31.789Z,3.37
2024-02-02T11:20:13.820Z,3.10
2024-02-02T11:22:48.474Z,3.23
2024-02-02T11:25:24.366Z,4.87
2024-02-02T11:28:00.318Z,3.40
2024-02-02T11:30:48.098Z,5.87
2024-02-02T11:33:35.481Z,3.77
2024-02-02T11:36:16.001Z,3.90
2024-02-02T11:38:55.970Z,3.33
2024-02-02T11:41:29.428Z,4.00
2024-02-02T11:43:58.761Z,3.63
2024-02-02T11:46:29.137Z,3.93
2024-02-02T11:49:06.979Z,4.57
2024-02-02T11:51:38.545Z,3.80
2024-02-02T11:54:16.254Z,4.03
2024-02-02T11:56:45.533Z,4.07
2024-02-02T11:59:18.688Z,3.70
2024-02-02T12:01:58.398Z,3.90
2024-02-02T12:04:41.385Z,4.20
2024-02-02T12:07:24.996Z,3.97
2024-02-02T12:09:59.365Z,2.80
2024-02-02T12:12:34.569Z,3.20
2024-02-02T12:15:02.829Z,3.10
2024-02-02T12:17:31.236Z,3.13
2024-02-02T12:20:01.062Z,3.80
2024-02-02T12:22:30.436Z,2.87
2024-02-02T12:24:58.699Z,3.60
2024-02-02T12:27:26.798Z,3.70
2024-02-02T12:29:55.360Z,3.70
2024-02-02T12:32:23.622Z,3.80
2024-02-02T12:34:53.022Z,3.33
2024-02-02T12:37:25.378Z,4.30
2024-02-02T12:39:54.924Z,3.57
2024-02-02T12:42:24.588Z,3.67
2024-02-02T12:44:52.893Z,3.53
2024-02-02T12:47:26.021Z,4.93
2024-02-02T12:49:55.905Z,3.30
2024-02-02T12:52:25.417Z,5.47
2024-02-02T12:54:53.767Z,2.87
2024-02-02T12:57:22.724Z,3.10
2024-02-02T12:59:50.840Z,4.20
2024-02-02T13:02:21.580Z,3.70
2024-02-02T13:04:54.000Z,3.50
2024-02-02T13:07:22.342Z,4.07
2024-02-02T13:09:53.023Z,3.40
2024-02-02T13:12:29.588Z,3.40
2024-02-02T13:15:09.382Z,4.00
2024-02-02T13:17:38.392Z,3.73
2024-02-02T13:20:15.796Z,4.00
2024-02-02T13:22:51.303Z,3.50
2024-02-02T13:25:25.778Z,2.73
2024-02-02T13:27:55.268Z,3.20
2024-02-02T13:30:27.619Z,3.37
2024-02-02T13:32:58.348Z,3.43
2024-02-02T13:35:32.413Z,3.80
2024-02-02T13:38:03.736Z,3.67
2024-02-02T13:40:33.253Z,3.00
2024-02-02T13:43:02.572Z,3.47
2024-02-02T13:45:31.657Z,3.13
2024-02-02T13:48:02.283Z,3.80
2024-02-02T13:50:41.631Z,3.43
2024-02-02T13:53:10.400Z,2.90
2024-02-02T13:55:40.588Z,3.40
2024-02-02T13:58:09.303Z,3.23
2024-02-02T14:00:37.605Z,3.30
2024-02-02T14:03:09.811Z,3.47
2024-02-02T14:05:38.409Z,4.63
2024-02-02T14:08:07.846Z,3.87
2024-02-02T14:10:47.435Z,3.20
2024-02-02T14:13:17.944Z,4.27
2024-02-02T14:15:46.325Z,3.50
2024-02-02T14:18:14.942Z,3.10
2024-02-02T14:20:42.946Z,2.77
2024-02-02T14:23:12.267Z,3.30
2024-02-02T14:25:40.758Z,3.43
2024-02-02T14:28:17.722Z,4.20
2024-02-02T14:30:45.933Z,3.23
2024-02-02T14:33:24.343Z,4.43
2024-02-02T14:35:54.075Z,3.83
2024-02-02T14:38:22.156Z,3.13
2024-02-02T14:40:50.526Z,3.40
2024-02-02T14:43:19.908Z,3.60
2024-02-02T14:45:48.093Z,3.30
2024-02-02T14:48:18.407Z,4.30
2024-02-02T14:50:48.171Z,2.97
2024-02-02T14:53:16.110Z,3.80
2024-02-02T14:55:44.215Z,3.10
2024-02-02T14:58:12.551Z,3.20
2024-02-02T15:00:45.787Z,4.23
2024-02-02T15:03:14.507Z,3.80
2024-02-02T15:05:42.755Z,3.10
2024-02-02T15:08:11.966Z,3.30
2024-02-02T15:10:42.025Z,3.30
2024-02-02T15:13:11.581Z,3.27
2024-02-02T15:15:41.040Z,4.13
2024-02-02T15:18:09.516Z,3.63
2024-02-02T15:20:37.697Z,3.03
2024-02-02T15:23:07.688Z,3.97
2024-02-02T15:25:35.711Z,3.60
2024-02-02T15:28:03.611Z,3.57
2024-02-02T15:30:31.768Z,3.60
2024-02-02T15:33:01.221Z,2.80
2024-02-02T15:35:29.367Z,3.70
2024-02-02T15:37:57.368Z,3.33
2024-02-02T15:40:25.432Z,3.40
2024-02-02T15:42:53.654Z,3.17
2024-02-02T15:45:21.680Z,3.50
2024-02-02T15:47:52.011Z,3.53
2024-02-02T15:50:21.635Z,3.10
2024-02-02T15:52:49.824Z,3.20
2024-02-02T15:55:18.184Z,3.40
2024-02-02T15:57:51.630Z,4.40
2024-02-02T16:00:20.929Z,3.50
2024-02-02T16:02:49.514Z,3.53
2024-02-02T16:05:18.479Z,4.50
2024-02-02T16:07:48.394Z,4.67
2024-02-02T16:10:17.936Z,3.80
2024-02-02T16:12:46.563Z,2.70
2024-02-02T16:15:14.781Z,1.97
2024-02-02T16:17:42.909Z,1.70
2024-02-02T16:20:12.565Z,1.73
2024-02-02T16:22:42.414Z,1.87
2024-02-02T16:25:13.389Z,1.80
2024-02-02T16:27:41.772Z,1.53
2024-02-02T16:30:11.229Z,1.70
2024-02-02T16:32:39.390Z,2.47
2024-02-02T16:35:09.261Z,1.20
2024-02-02T16:37:39.572Z,1.60
2024-02-02T16:40:09.827Z,2.27
2024-02-02T16:42:41.253Z,2.20
2024-02-02T16:45:10.522Z,1.90
2024-02-02T16:47:39.340Z,2.20
2024-02-02T16:50:08.522Z,1.63
2024-02-02T16:52:37.412Z,1.80
2024-02-02T16:55:05.851Z,2.20
2024-02-02T16:57:33.915Z,3.00
2024-02-02T17:00:06.221Z,1.83
2024-02-02T17:02:34.334Z,1.70
2024-02-02T17:05:02.276Z,1.77
2024-02-02T17:07:30.955Z,1.77
2024-02-02T17:09:59.131Z,1.80
2024-02-02T17:12:27.370Z,2.53
2024-02-02T17:14:56.242Z,2.20
2024-02-02T17:17:27.097Z,2.57
2024-02-02T17:19:55.098Z,4.43
2024-02-02T17:22:24.246Z,2.30
2024-02-02T17:24:52.205Z,2.30
2024-02-02T17:27:20.282Z,2.30
2024-02-02T17:29:48.392Z,2.70
2024-02-02T17:32:17.843Z,2.50
2024-02-02T17:34:49.963Z,2.83
2024-02-02T17:37:18.328Z,3.37
2024-02-02T17:39:47.791Z,2.30
2024-02-02T17:42:16.278Z,3.00
2024-02-02T17:44:44.329Z,4.90
2024-02-02T17:47:12.403Z,1.70
2024-02-02T17:49:45.656Z,2.63
2024-02-02T17:52:19.848Z,2.63
2024-02-02T17:54:48.127Z,2.40
2024-02-02T17:57:16.224Z,2.23
2024-02-02T17:59:44.563Z,4.50
2024-02-02T18:02:13.084Z,2.40
2024-02-02T18:04:41.234Z,2.50
2024-02-02T18:07:12.630Z,2.50
2024-02-02T18:09:43.000Z,2.60
2024-02-02T18:12:12.894Z,1.63
2024-02-02T18:14:40.961Z,1.93
2024-02-02T18:17:09.571Z,2.30
2024-02-02T18:19:38.124Z,2.33
2024-02-02T18:22:06.232Z,2.60
2024-02-02T18:24:34.359Z,3.47
2024-02-02T18:27:04.089Z,2.13
2024-02-02T18:29:32.183Z,2.20
2024-02-02T18:32:00.390Z,2.30
2024-02-02T18:34:28.654Z,1.57
2024-02-02T18:36:56.878Z,1.60
2024-02-02T18:39:26.300Z,1.70
2024-02-02T18:41:54.292Z,2.13
2024-02-02T18:44:23.752Z,2.40
2024-02-02T18:46:51.841Z,2.00
2024-02-02T18:49:20.059Z,2.00
2024-02-02T18:51:49.170Z,1.97
2024-02-02T18:54:17.410Z,2.27
2024-02-02T18:56:45.525Z,2.60
2024-02-02T18:59:14.460Z,1.60
2024-02-02T19:01:44.048Z,1.90
2024-02-02T19:04:13.141Z,2.20
2024-02-02T19:06:41.657Z,2.20
2024-02-02T19:09:10.999Z,1.90
2024-02-02T19:11:39.191Z,2.70
2024-02-02T19:14:12.859Z,1.60
2024-02-02T19:16:41.716Z,1.90
2024-02-02T19:19:11.595Z,2.00
2024-02-02T19:21:41.163Z,2.43
2024-02-02T19:24:11.470Z,2.23
2024-02-02T19:26:40.609Z,1.87
2024-02-02T19:29:08.984Z,2.30
2024-02-02T19:31:40.142Z,1.60
2024-02-02T19:34:09.089Z,1.80
2024-02-02T19:36:39.658Z,1.70
2024-02-02T19:39:10.152Z,1.57
2024-02-02T19:41:38.292Z,2.97
2024-02-02T19:44:06.320Z,2.20
2024-02-02T19:46:35.080Z,2.30
2024-02-02T19:49:04.857Z,1.80
2024-02-02T19:51:33.954Z,2.00
2024-02-02T19:54:03.497Z,2.10
2024-02-02T19:56:31.601Z,1.70
2024-02-02T19:58:59.890Z,1.90
2024-02-02T20:01:28.155Z,2.10
2024-02-02T20:03:57.274Z,2.07
2024-02-02T20:06:29.408Z,2.90
2024-02-02T20:08:57.629Z,1.67
2024-02-02T20:11:27.452Z,2.10
2024-02-02T20:13:56.149Z,1.53
2024-02-02T20:16:24.415Z,1.53
2024-02-02T20:18:52.448Z,2.00
2024-02-02T20:21:21.304Z,1.50
2024-02-02T20:23:52.431Z,2.37
2024-02-02T20:26:23.211Z,1.90
2024-02-02T20:28:53.753Z,1.60
2024-02-02T20:31:22.271Z,1.43
2024-02-02T20:33:52.701Z,1.60
2024-02-02T20:36:23.498Z,1.70
2024-02-02T20:38:51.646Z,1.63
2024-02-02T20:41:26.616Z,2.00
2024-02-02T20:43:58.804Z,1.90
2024-02-02T20:46:27.202Z,2.40
2024-02-02T20:48:55.405Z,1.80
2024-02-02T20:51:23.605Z,1.80
2024-02-02T20:53:52.236Z,1.60
2024-02-02T20:56:20.379Z,1.83
2024-02-02T20:58:48.392Z,2.00
2024-02-02T21:01:17.848Z,1.60
2024-02-02T21:03:55.099Z,2.07
2024-02-02T21:06:23.306Z,1.63
2024-02-02T21:08:52.488Z,1.83
2024-02-02T21:11:20.949Z,2.00
2024-02-02T21:13:49.180Z,2.80
2024-02-02T21:16:18.586Z,2.33
2024-02-02T21:18:47.104Z,1.70
2024-02-02T21:21:22.046Z,1.40
2024-02-02T21:23:51.272Z,1.60
2024-02-02T21:26:20.360Z,1.70
2024-02-02T21:28:48.339Z,1.93
2024-02-02T21:31:17.893Z,1.87
2024-02-02T21:33:46.236Z,1.57
2024-02-02T21:36:14.591Z,2.03
2024-02-02T21:38:42.562Z,1.60
2024-02-02T21:41:12.632Z,1.60
2024-02-02T21:43:40.888Z,1.70
2024-02-02T21:46:08.859Z,1.60
2024-02-02T21:48:38.461Z,2.10
2024-02-02T21:51:08.897Z,1.60
2024-02-02T21:53:37.108Z,1.47
2024-02-02T21:56:06.212Z,2.30
2024-02-02T21:58:34.377Z,2.13
2024-02-02T22:01:02.782Z,1.60
2024-02-02T22:03:31.602Z,1.30
2024-02-02T22:06:01.001Z,2.03
2024-02-02T22:08:29.096Z,2.03
2024-02-02T22:10:57.468Z,1.47
2024-02-02T22:13:26.150Z,2.43
2024-02-02T22:15:54.820Z,1.70
2024-02-02T22:18:23.140Z,2.03
2024-02-02T22:20:51.406Z,2.17
2024-02-02T22:23:20.983Z,1.97
2024-02-02T22:25:48.988Z,2.10
2024-02-02T22:28:17.045Z,1.80
2024-02-02T22:30:45.196Z,1.43
2024-02-02T22:33:14.070Z,1.40
2024-02-02T22:35:42.269Z,1.90
2024-02-02T22:38:15.592Z,1.77
2024-02-02T22:40:45.401Z,2.30
2024-02-02T22:43:13.458Z,2.53
2024-02-02T22:45:41.638Z,2.27
2024-02-02T22:48:09.919Z,1.40
2024-02-02T22:50:37.935Z,3.30
2024-02-02T22:53:06.406Z,2.07
2024-02-02T22:55:34.438Z,1.90
2024-02-02T22:58:04.238Z,2.00
2024-02-02T23:00:32.941Z,2.73
2024-02-02T23:03:07.122Z,1.90
2024-02-02T23:05:35.203Z,1.57
2024-02-02T23:08:03.544Z,1.90
2024-02-02T23:10:33.537Z,1.73
2024-02-02T23:13:09.937Z,3.70
2024-02-02T23:15:57.724Z,1.80
2024-02-02T23:18:33.186Z,1.80
2024-02-02T23:21:06.840Z,1.60
2024-02-02T23:23:46.522Z,1.70
2024-02-02T23:26:20.281Z,1.47
2024-02-02T23:28:51.466Z,2.80
2024-02-02T23:31:23.028Z,1.60
2024-02-02T23:33:51.332Z,2.53
2024-02-02T23:36:20.124Z,1.93
2024-02-02T23:38:48.244Z,1.60
2024-02-02T23:41:17.035Z,2.13
2024-02-02T23:43:45.410Z,1.87
2024-02-02T23:46:14.867Z,1.73
2024-02-02T23:48:43.299Z,1.57
2024-02-02T23:51:11.427Z,1.90
2024-02-02T23:53:40.855Z,2.10
2024-02-02T23:56:09.248Z,2.60
2024-02-02T23:58:37.410Z,1.47
